<?xml version="1.0" encoding="UTF-8" standalone="no" ?>
<gpx xmlns="http://www.topografix.com/GPX/1/1" xmlns:xsi="http://www.w3.org/2001/XMLSchema-instance" xsi:schemaLocation="http://www.topografix.com/GPX/1/1 http://www.topografix.com/GPX/1/1/gpx.xsd" version="1.1" creator="VisuGPX - https://www.visugpx.com">
  <metadata>
    <name>GR6 puis GR65 de Lagarrigue à Conques</name>
    <desc><![CDATA[Une variante sur le chemin de Saint Jacques de Compostelle]]></desc>
  </metadata>
  <trk>
    <name><![CDATA[ACTIVE LOG175550]]></name>
    <trkseg>
      <trkpt lat="44.59907" lon="2.39876">
        <ele>318.245</ele>
        <time>2013-06-22T15:55:50Z</time>
      </trkpt>
      <trkpt lat="44.59931" lon="2.3986">
        <ele>315.073</ele>
        <time>2013-06-22T15:56:23Z</time>
      </trkpt>
      <trkpt lat="44.59934" lon="2.39848">
        <ele>314.687</ele>
        <time>2013-06-22T15:56:41Z</time>
      </trkpt>
      <trkpt lat="44.59938" lon="2.39831">
        <ele>314.488</ele>
        <time>2013-06-22T15:56:59Z</time>
      </trkpt>
      <trkpt lat="44.59941" lon="2.39825">
        <ele>313.946</ele>
        <time>2013-06-22T15:57:07Z</time>
      </trkpt>
      <trkpt lat="44.59945" lon="2.398">
        <ele>312.27</ele>
        <time>2013-06-22T15:57:26Z</time>
      </trkpt>
      <trkpt lat="44.59946" lon="2.3978">
        <ele>310.939</ele>
        <time>2013-06-22T15:57:45Z</time>
      </trkpt>
      <trkpt lat="44.5995" lon="2.39749">
        <ele>310.48</ele>
        <time>2013-06-22T15:58:17Z</time>
      </trkpt>
      <trkpt lat="44.59954" lon="2.39747">
        <ele>309.832</ele>
        <time>2013-06-22T15:58:21Z</time>
      </trkpt>
      <trkpt lat="44.59947" lon="2.39732">
        <ele>309.109</ele>
        <time>2013-06-22T15:58:32Z</time>
      </trkpt>
      <trkpt lat="44.59923" lon="2.39731">
        <ele>307.53</ele>
        <time>2013-06-22T15:58:44Z</time>
      </trkpt>
      <trkpt lat="44.59919" lon="2.39722">
        <ele>306.682</ele>
        <time>2013-06-22T15:59:01Z</time>
      </trkpt>
      <trkpt lat="44.59917" lon="2.39714">
        <ele>306.185</ele>
        <time>2013-06-22T15:59:17Z</time>
      </trkpt>
      <trkpt lat="44.5992" lon="2.39702">
        <ele>306.032</ele>
        <time>2013-06-22T15:59:40Z</time>
      </trkpt>
      <trkpt lat="44.59922" lon="2.39698">
        <ele>305.27</ele>
        <time>2013-06-22T15:59:43Z</time>
      </trkpt>
      <trkpt lat="44.59924" lon="2.39684">
        <ele>305.743</ele>
        <time>2013-06-22T16:00:00Z</time>
      </trkpt>
    </trkseg>
  </trk>
</gpx>